createdAt,value
2023-10-05T00:00:44.516Z,1018.68
2023-10-05T00:01:44.572Z,1018.66
2023-10-05T00:02:44.486Z,1018.63
2023-10-05T00:03:44.425Z,1018.65
2023-10-05T00:04:45.267Z,1018.64
2023-10-05T00:05:44.323Z,1018.66
2023-10-05T00:06:44.370Z,1018.67
2023-10-05T00:07:44.248Z,1018.66
2023-10-05T00:08:44.213Z,1018.66
2023-10-05T00:09:44.161Z,1018.62
2023-10-05T00:10:44.130Z,1018.66
2023-10-05T00:11:44.084Z,1018.58
2023-10-05T00:12:44.045Z,1018.65
2023-10-05T00:13:54.127Z,1018.66
2023-10-05T00:14:51.640Z,1018.69
2023-10-05T00:15:52.748Z,1018.76
2023-10-05T00:16:43.883Z,1018.75
2023-10-05T00:17:43.920Z,1018.80
2023-10-05T00:18:53.275Z,1019.13
2023-10-05T00:19:52.261Z,1019.10
2023-10-05T00:20:43.728Z,1019.09
2023-10-05T00:21:52.592Z,1018.76
2023-10-05T00:22:52.302Z,1018.74
2023-10-05T00:23:43.643Z,1018.77
2023-10-05T00:24:43.600Z,1018.68
2023-10-05T00:25:43.544Z,1018.70
2023-10-05T00:26:44.306Z,1018.67
2023-10-05T00:27:43.439Z,1018.67
2023-10-05T00:28:43.429Z,1018.63
2023-10-05T00:29:43.361Z,1018.68
2023-10-05T00:30:43.324Z,1018.74
2023-10-05T00:31:43.330Z,1019.10
2023-10-05T00:32:43.282Z,1018.78
2023-10-05T00:33:43.200Z,1018.74
2023-10-05T00:34:43.178Z,1018.76
2023-10-05T00:35:43.139Z,1018.71
2023-10-05T00:36:43.082Z,1018.67
2023-10-05T00:37:43.047Z,1018.73
2023-10-05T00:38:43.033Z,1018.70
2023-10-05T00:39:42.971Z,1018.69
2023-10-05T00:40:42.934Z,1019.05
2023-10-05T00:41:42.899Z,1019.00
2023-10-05T00:42:42.844Z,1018.67
2023-10-05T00:43:42.805Z,1018.66
2023-10-05T00:44:42.769Z,1018.65
2023-10-05T00:45:42.778Z,1018.98
2023-10-05T00:46:42.780Z,1018.69
2023-10-05T00:47:42.684Z,1018.70
2023-10-05T00:48:42.620Z,1018.70
2023-10-05T00:49:42.572Z,1018.67
2023-10-05T00:50:42.527Z,1018.71
2023-10-05T00:51:42.493Z,1019.09
2023-10-05T00:52:42.446Z,1018.77
2023-10-05T00:53:42.427Z,1018.76
2023-10-05T00:54:42.393Z,1018.75
2023-10-05T00:55:42.328Z,1018.76
2023-10-05T00:56:42.290Z,1018.73
2023-10-05T00:57:42.282Z,1018.70
2023-10-05T00:58:42.208Z,1018.70
2023-10-05T00:59:42.176Z,1018.71
2023-10-05T01:00:42.129Z,1018.73
2023-10-05T01:01:42.167Z,1018.81
2023-10-05T01:02:42.076Z,1018.82
2023-10-05T01:03:42.106Z,1018.80
2023-10-05T01:04:42.024Z,1018.81
2023-10-05T01:05:41.935Z,1018.80
2023-10-05T01:06:41.913Z,1018.78
2023-10-05T01:07:41.858Z,1018.79
2023-10-05T01:08:41.848Z,1018.80
2023-10-05T01:09:41.786Z,1018.79
2023-10-05T01:10:41.906Z,1018.72
2023-10-05T01:11:41.725Z,1018.80
2023-10-05T01:12:41.670Z,1018.75
2023-10-05T01:13:41.638Z,1018.74
2023-10-05T01:14:41.603Z,1018.75
2023-10-05T01:15:41.566Z,1018.72
2023-10-05T01:16:41.639Z,1018.71
2023-10-05T01:17:41.511Z,1018.74
2023-10-05T01:18:41.460Z,1018.77
2023-10-05T01:19:41.393Z,1018.76
2023-10-05T01:20:41.360Z,1018.76
2023-10-05T01:21:41.313Z,1018.78
2023-10-05T01:22:41.279Z,1018.78
2023-10-05T01:23:41.239Z,1018.75
2023-10-05T01:24:41.225Z,1018.80
2023-10-05T01:25:41.158Z,1018.79
2023-10-05T01:26:41.120Z,1018.76
2023-10-05T01:27:41.077Z,1018.79
2023-10-05T01:28:41.048Z,1018.81
2023-10-05T01:29:40.998Z,1018.79
2023-10-05T01:30:40.978Z,1018.80
2023-10-05T01:31:40.993Z,1018.79
2023-10-05T01:32:40.910Z,1018.79
2023-10-05T01:33:40.840Z,1018.80
2023-10-05T01:34:40.809Z,1018.77
2023-10-05T01:35:40.761Z,1018.80
2023-10-05T01:36:40.740Z,1018.80
2023-10-05T01:37:40.790Z,1018.79
2023-10-05T01:38:40.660Z,1018.82
2023-10-05T01:39:40.601Z,1018.82
2023-10-05T01:40:40.571Z,1018.84
2023-10-05T01:41:40.561Z,1018.82
2023-10-05T01:42:40.491Z,1018.79
2023-10-05T01:43:40.443Z,1018.81
2023-10-05T01:44:40.404Z,1018.79
2023-10-05T01:45:40.402Z,1018.80
2023-10-05T01:46:40.414Z,1018.77
2023-10-05T01:47:40.332Z,1018.81
2023-10-05T01:48:40.261Z,1018.78
2023-10-05T01:49:40.217Z,1018.75
2023-10-05T01:50:40.179Z,1018.79
2023-10-05T01:51:40.206Z,1018.77
2023-10-05T01:52:40.146Z,1018.77
2023-10-05T01:53:40.051Z,1018.77
2023-10-05T01:54:40.031Z,1018.75
2023-10-05T01:55:39.984Z,1018.80
2023-10-05T01:56:39.937Z,1018.78
2023-10-05T01:57:39.893Z,1018.77
2023-10-05T01:58:39.915Z,1018.77
2023-10-05T01:59:39.808Z,1018.73
2023-10-05T02:00:39.781Z,1018.73
2023-10-05T02:01:39.772Z,1018.74
2023-10-05T02:02:39.785Z,1018.74
2023-10-05T02:03:40.418Z,1018.74
2023-10-05T02:04:39.745Z,1018.72
2023-10-05T02:05:39.591Z,1018.69
2023-10-05T02:06:39.530Z,1018.70
2023-10-05T02:07:39.497Z,1018.70
2023-10-05T02:08:39.454Z,1018.69
2023-10-05T02:09:39.411Z,1018.70
2023-10-05T02:10:39.383Z,1018.73
2023-10-05T02:11:39.337Z,1018.70
2023-10-05T02:12:39.298Z,1018.69
2023-10-05T02:13:39.256Z,1018.69
2023-10-05T02:14:40.148Z,1018.71
2023-10-05T02:15:39.194Z,1018.69
2023-10-05T02:16:39.162Z,1018.63
2023-10-05T02:17:39.104Z,1018.65
2023-10-05T02:18:39.045Z,1018.63
2023-10-05T02:19:39.042Z,1018.61
2023-10-05T02:20:38.973Z,1018.61
2023-10-05T02:21:38.968Z,1018.61
2023-10-05T02:22:39.782Z,1018.62
2023-10-05T02:23:38.840Z,1018.57
2023-10-05T02:24:38.882Z,1018.53
2023-10-05T02:25:38.782Z,1018.51
2023-10-05T02:26:38.726Z,1018.58
2023-10-05T02:27:38.681Z,1018.61
2023-10-05T02:28:38.645Z,1018.59
2023-10-05T02:29:38.595Z,1018.59
2023-10-05T02:30:38.561Z,1018.55
2023-10-05T02:31:38.571Z,1018.52
2023-10-05T02:32:38.493Z,1018.58
2023-10-05T02:33:38.485Z,1018.55
2023-10-05T02:34:38.408Z,1018.56
2023-10-05T02:35:38.358Z,1018.55
2023-10-05T02:36:38.335Z,1018.52
2023-10-05T02:37:38.271Z,1018.53
2023-10-05T02:38:38.249Z,1018.49
2023-10-05T02:39:38.201Z,1018.52
2023-10-05T02:40:38.163Z,1018.48
2023-10-05T02:41:38.142Z,1018.50
2023-10-05T02:42:38.100Z,1018.47
2023-10-05T02:43:38.041Z,1018.43
2023-10-05T02:44:38.016Z,1018.48
2023-10-05T02:45:37.972Z,1018.46
2023-10-05T02:46:38.121Z,1018.46
2023-10-05T02:47:37.923Z,1018.42
2023-10-05T02:48:37.893Z,1018.39
2023-10-05T02:49:37.805Z,1018.43
2023-10-05T02:50:37.770Z,1018.40
2023-10-05T02:51:37.728Z,1018.38
2023-10-05T02:52:37.697Z,1018.35
2023-10-05T02:53:37.647Z,1018.33
2023-10-05T02:54:37.776Z,1018.35
2023-10-05T02:55:37.603Z,1018.35
2023-10-05T02:56:37.542Z,1018.37
2023-10-05T02:57:37.503Z,1018.41
2023-10-05T02:58:37.451Z,1018.37
2023-10-05T02:59:37.415Z,1018.39
2023-10-05T03:00:37.389Z,1018.38
2023-10-05T03:01:37.406Z,1018.36
2023-10-05T03:02:37.325Z,1018.36
2023-10-05T03:03:37.262Z,1018.38
2023-10-05T03:04:37.260Z,1018.51
2023-10-05T03:05:37.171Z,1018.70
2023-10-05T03:06:37.140Z,1018.66
2023-10-05T03:07:37.090Z,1018.35
2023-10-05T03:08:37.063Z,1018.31
2023-10-05T03:09:37.030Z,1018.34
2023-10-05T03:10:37.044Z,1018.37
2023-10-05T03:11:36.932Z,1018.40
2023-10-05T03:12:36.912Z,1018.41
2023-10-05T03:13:36.853Z,1018.40
2023-10-05T03:14:36.814Z,1018.40
2023-10-05T03:15:36.778Z,1018.39
2023-10-05T03:16:36.777Z,1018.36
2023-10-05T03:17:36.714Z,1018.39
2023-10-05T03:18:36.659Z,1018.35
2023-10-05T03:19:36.642Z,1018.37
2023-10-05T03:20:36.577Z,1018.29
2023-10-05T03:21:36.560Z,1018.29
2023-10-05T03:22:36.586Z,1018.30
2023-10-05T03:23:36.500Z,1018.28
2023-10-05T03:24:36.418Z,1018.28
2023-10-05T03:25:36.424Z,1018.30
2023-10-05T03:26:36.351Z,1018.26
2023-10-05T03:27:36.326Z,1018.28
2023-10-05T03:28:36.320Z,1018.30
2023-10-05T03:29:36.218Z,1018.29
2023-10-05T03:30:36.223Z,1018.29
2023-10-05T03:31:36.212Z,1018.28
2023-10-05T03:32:36.145Z,1018.29
2023-10-05T03:33:36.072Z,1018.24
2023-10-05T03:34:36.069Z,1018.21
2023-10-05T03:35:44.429Z,1018.22
2023-10-05T03:36:45.465Z,1018.19
2023-10-05T03:37:43.987Z,1018.23
2023-10-05T03:38:45.452Z,1018.21
2023-10-05T03:39:45.076Z,1018.23
2023-10-05T03:40:45.111Z,1018.21
2023-10-05T03:41:44.149Z,1018.26
2023-10-05T03:42:35.713Z,1018.24
2023-10-05T03:43:35.689Z,1018.32
2023-10-05T03:44:35.678Z,1018.35
2023-10-05T03:45:45.700Z,1018.31
2023-10-05T03:46:36.375Z,1018.27
2023-10-05T03:47:35.558Z,1018.28
2023-10-05T03:48:35.462Z,1018.26
2023-10-05T03:49:35.445Z,1018.28
2023-10-05T03:50:35.382Z,1018.31
2023-10-05T03:51:35.341Z,1018.33
2023-10-05T03:52:35.371Z,1018.31
2023-10-05T03:53:35.270Z,1018.32
2023-10-05T03:54:35.218Z,1018.31
2023-10-05T03:55:35.227Z,1018.36
2023-10-05T03:56:35.142Z,1018.39
2023-10-05T03:57:35.094Z,1018.38
2023-10-05T03:58:35.117Z,1018.39
2023-10-05T03:59:35.028Z,1018.41
2023-10-05T04:00:35.003Z,1018.41
2023-10-05T04:01:35.080Z,1018.42
2023-10-05T04:02:34.910Z,1018.42
2023-10-05T04:03:34.883Z,1018.38
2023-10-05T04:04:34.907Z,1018.40
2023-10-05T04:05:34.776Z,1018.41
2023-10-05T04:06:34.739Z,1018.45
2023-10-05T04:07:34.747Z,1018.43
2023-10-05T04:08:34.710Z,1018.42
2023-10-05T04:09:34.624Z,1018.46
2023-10-05T04:10:34.607Z,1018.44
2023-10-05T04:11:34.549Z,1018.50
2023-10-05T04:12:34.520Z,1018.44
2023-10-05T04:13:34.489Z,1018.44
2023-10-05T04:14:34.422Z,1018.42
2023-10-05T04:15:34.375Z,1018.43
2023-10-05T04:16:34.387Z,1018.41
2023-10-05T04:17:34.372Z,1018.41
2023-10-05T04:18:34.314Z,1018.44
2023-10-05T04:19:34.266Z,1018.43
2023-10-05T04:20:34.280Z,1018.43
2023-10-05T04:21:34.148Z,1018.41
2023-10-05T04:22:34.220Z,1018.40
2023-10-05T04:23:34.050Z,1018.37
2023-10-05T04:24:34.033Z,1018.39
2023-10-05T04:25:34.008Z,1018.35
2023-10-05T04:26:33.970Z,1018.40
2023-10-05T04:27:33.909Z,1018.38
2023-10-05T04:28:33.920Z,1018.41
2023-10-05T04:29:33.829Z,1018.40
2023-10-05T04:30:33.832Z,1018.36
2023-10-05T04:31:33.917Z,1018.36
2023-10-05T04:32:33.749Z,1018.39
2023-10-05T04:33:33.658Z,1018.36
2023-10-05T04:34:33.638Z,1018.32
2023-10-05T04:35:33.589Z,1018.36
2023-10-05T04:36:33.541Z,1018.37
2023-10-05T04:37:33.550Z,1018.40
2023-10-05T04:38:33.466Z,1018.32
2023-10-05T04:39:33.417Z,1018.38
2023-10-05T04:40:33.410Z,1018.32
2023-10-05T04:41:33.342Z,1018.36
2023-10-05T04:42:33.301Z,1018.34
2023-10-05T04:43:33.302Z,1018.32
2023-10-05T04:44:33.210Z,1018.33
2023-10-05T04:45:33.182Z,1018.30
2023-10-05T04:46:33.250Z,1018.30
2023-10-05T04:47:33.126Z,1018.33
2023-10-05T04:48:33.069Z,1018.29
2023-10-05T04:49:33.082Z,1018.31
2023-10-05T04:50:32.978Z,1018.63
2023-10-05T04:51:32.994Z,1018.34
2023-10-05T04:52:32.983Z,1018.36
2023-10-05T04:53:32.884Z,1018.29
2023-10-05T04:54:32.833Z,1018.28
2023-10-05T04:55:32.975Z,1018.32
2023-10-05T04:56:32.737Z,1018.30
2023-10-05T04:57:32.695Z,1018.31
2023-10-05T04:58:32.774Z,1018.31
2023-10-05T04:59:32.625Z,1018.34
2023-10-05T05:00:32.596Z,1018.31
2023-10-05T05:01:32.565Z,1018.31
2023-10-05T05:02:32.529Z,1018.31
2023-10-05T05:03:32.576Z,1018.30
2023-10-05T05:04:32.430Z,1018.33
2023-10-05T05:05:32.386Z,1018.33
2023-10-05T05:06:32.334Z,1018.31
2023-10-05T05:07:32.345Z,1018.28
2023-10-05T05:08:32.272Z,1018.33
2023-10-05T05:09:32.226Z,1018.33
2023-10-05T05:10:32.220Z,1018.34
2023-10-05T05:11:32.141Z,1018.34
2023-10-05T05:12:32.101Z,1018.34
2023-10-05T05:13:32.126Z,1018.30
2023-10-05T05:14:32.010Z,1018.27
2023-10-05T05:15:32.004Z,1018.26
2023-10-05T05:16:32.040Z,1018.21
2023-10-05T05:17:32.014Z,1018.22
2023-10-05T05:18:31.982Z,1018.20
2023-10-05T05:19:31.821Z,1018.24
2023-10-05T05:20:31.780Z,1018.19
2023-10-05T05:21:31.733Z,1018.16
2023-10-05T05:22:31.734Z,1018.13
2023-10-05T05:23:31.655Z,1018.14
2023-10-05T05:24:31.612Z,1018.21
2023-10-05T05:25:31.584Z,1018.16
2023-10-05T05:26:31.532Z,1018.17
2023-10-05T05:27:31.496Z,1018.14
2023-10-05T05:28:31.504Z,1018.12
2023-10-05T05:29:31.421Z,1018.11
2023-10-05T05:30:31.376Z,1018.12
2023-10-05T05:31:31.402Z,1018.12
2023-10-05T05:32:31.323Z,1018.13
2023-10-05T05:33:31.259Z,1018.06
2023-10-05T05:34:31.360Z,1018.09
2023-10-05T05:35:32.153Z,1018.09
2023-10-05T05:36:31.136Z,1018.09
2023-10-05T05:37:31.297Z,1018.07
2023-10-05T05:38:31.056Z,1018.11
2023-10-05T05:39:31.018Z,1018.12
2023-10-05T05:40:31.092Z,1018.11
2023-10-05T05:41:30.968Z,1018.09
2023-10-05T05:42:30.899Z,1018.12
2023-10-05T05:43:30.897Z,1018.14
2023-10-05T05:44:30.819Z,1018.16
2023-10-05T05:45:30.850Z,1018.14
2023-10-05T05:46:30.877Z,1018.15
2023-10-05T05:47:30.723Z,1018.15
2023-10-05T05:48:30.649Z,1018.16
2023-10-05T05:49:30.614Z,1018.14
2023-10-05T05:50:30.624Z,1018.18
2023-10-05T05:51:30.570Z,1018.17
2023-10-05T05:52:30.579Z,1018.15
2023-10-05T05:53:30.456Z,1018.12
2023-10-05T05:54:30.430Z,1018.11
2023-10-05T05:55:30.401Z,1018.14
2023-10-05T05:56:30.728Z,1018.17
2023-10-05T05:57:30.313Z,1018.19
2023-10-05T05:58:30.270Z,1018.22
2023-10-05T05:59:30.251Z,1018.21
2023-10-05T06:00:30.182Z,1018.18
2023-10-05T06:01:30.176Z,1018.21
2023-10-05T06:02:30.177Z,1018.19
2023-10-05T06:03:30.056Z,1018.20
2023-10-05T06:04:30.111Z,1018.20
2023-10-05T06:05:29.977Z,1018.24
2023-10-05T06:06:29.969Z,1018.36
2023-10-05T06:07:29.957Z,1018.26
2023-10-05T06:08:29.847Z,1018.32
2023-10-05T06:09:29.847Z,1018.37
2023-10-05T06:10:30.430Z,1018.36
2023-10-05T06:11:29.733Z,1018.38
2023-10-05T06:12:29.713Z,1018.48
2023-10-05T06:13:29.721Z,1018.45
2023-10-05T06:14:29.691Z,1018.47
2023-10-05T06:15:29.712Z,1018.55
2023-10-05T06:16:29.610Z,1018.55
2023-10-05T06:17:32.416Z,1018.61
2023-10-05T06:18:29.447Z,1018.61
2023-10-05T06:19:29.458Z,1018.67
2023-10-05T06:20:29.366Z,1018.67
2023-10-05T06:21:29.646Z,1018.74
2023-10-05T06:22:29.344Z,1018.77
2023-10-05T06:23:29.255Z,1018.79
2023-10-05T06:24:29.217Z,1018.76
2023-10-05T06:25:29.378Z,1018.84
2023-10-05T06:26:29.137Z,1018.87
2023-10-05T06:27:29.115Z,1018.90
2023-10-05T06:28:29.124Z,1018.88
2023-10-05T06:29:29.009Z,1018.93
2023-10-05T06:30:29.010Z,1018.88
2023-10-05T06:31:29.078Z,1018.91
2023-10-05T06:32:28.932Z,1018.87
2023-10-05T06:33:28.854Z,1018.92
2023-10-05T06:34:28.866Z,1018.92
2023-10-05T06:35:28.780Z,1018.93
2023-10-05T06:36:28.735Z,1018.95
2023-10-05T06:37:28.738Z,1018.94
2023-10-05T06:38:28.676Z,1018.93
2023-10-05T06:39:28.796Z,1018.95
2023-10-05T06:40:28.589Z,1018.93
2023-10-05T06:41:28.534Z,1018.94
2023-10-05T06:42:28.495Z,1018.92
2023-10-05T06:43:28.550Z,1018.94
2023-10-05T06:44:28.426Z,1018.95
2023-10-05T06:45:28.378Z,1018.92
2023-10-05T06:46:28.383Z,1018.94
2023-10-05T06:47:28.438Z,1018.93
2023-10-05T06:48:28.256Z,1018.96
2023-10-05T06:49:28.263Z,1018.96
2023-10-05T06:50:32.135Z,1018.97
2023-10-05T06:51:28.143Z,1018.91
2023-10-05T06:52:28.144Z,1018.92
2023-10-05T06:53:28.060Z,1018.92
2023-10-05T06:54:28.020Z,1018.89
2023-10-05T06:55:28.037Z,1019.27
2023-10-05T06:56:27.945Z,1018.91
2023-10-05T06:57:27.906Z,1018.91
2023-10-05T06:58:28.065Z,1018.91
2023-10-05T06:59:27.842Z,1018.85
2023-10-05T07:00:27.797Z,1018.87
2023-10-05T07:01:27.818Z,1018.87
2023-10-05T07:02:27.789Z,1018.87
2023-10-05T07:03:27.756Z,1018.87
2023-10-05T07:04:27.703Z,1018.90
2023-10-05T07:05:27.601Z,1018.87
2023-10-05T07:06:27.552Z,1018.91
2023-10-05T07:07:27.581Z,1018.92
2023-10-05T07:08:28.550Z,1018.93
2023-10-05T07:09:27.455Z,1018.94
2023-10-05T07:10:27.443Z,1018.94
2023-10-05T07:11:27.369Z,1018.99
2023-10-05T07:12:27.324Z,1018.97
2023-10-05T07:13:27.361Z,1018.92
2023-10-05T07:14:27.241Z,1018.96
2023-10-05T07:15:27.246Z,1018.98
2023-10-05T07:16:27.388Z,1018.97
2023-10-05T07:17:27.197Z,1018.97
2023-10-05T07:18:27.230Z,1019.22
2023-10-05T07:19:27.090Z,1018.98
2023-10-05T07:20:27.012Z,1018.99
2023-10-05T07:21:26.987Z,1019.31
2023-10-05T07:22:26.979Z,1019.14
2023-10-05T07:23:26.897Z,1019.41
2023-10-05T07:24:26.856Z,1019.07
2023-10-05T07:25:26.831Z,1019.11
2023-10-05T07:26:26.780Z,1019.14
2023-10-05T07:27:26.777Z,1019.20
2023-10-05T07:28:26.748Z,1019.19
2023-10-05T07:30:35.226Z,1019.27
2023-10-05T07:33:12.932Z,1019.49
2023-10-05T07:34:03.901Z,1019.27
2023-10-05T07:34:58.793Z,1019.28
2023-10-05T07:36:58.578Z,1019.34
2023-10-05T07:41:54.955Z,1019.41
2023-10-05T07:42:58.927Z,1019.42
2023-10-05T07:44:07.477Z,1019.38
2023-10-05T07:44:55.824Z,1019.39
2023-10-05T07:45:54.686Z,1019.41
2023-10-05T07:46:54.642Z,1019.41
2023-10-05T07:47:54.516Z,1019.41
2023-10-05T07:48:56.821Z,1019.44
2023-10-05T07:49:54.434Z,1019.45
2023-10-05T07:50:54.400Z,1019.52
2023-10-05T07:51:54.332Z,1019.56
2023-10-05T07:52:54.298Z,1019.56
2023-10-05T07:53:54.258Z,1019.63
2023-10-05T07:54:54.218Z,1019.62
2023-10-05T07:55:54.197Z,1019.63
2023-10-05T07:57:54.109Z,1019.67
2023-10-05T07:58:54.162Z,1019.67
2023-10-05T07:59:54.100Z,1019.60
2023-10-05T08:00:54.001Z,1019.67
2023-10-05T08:01:54.182Z,1019.67
2023-10-05T08:02:54.003Z,1019.67
2023-10-05T08:03:53.945Z,1019.70
2023-10-05T08:04:53.891Z,1019.71
2023-10-05T08:05:53.808Z,1019.70
2023-10-05T08:06:53.758Z,1019.74
2023-10-05T08:07:53.737Z,1019.78
2023-10-05T08:08:53.689Z,1019.75
2023-10-05T08:09:53.647Z,1019.81
2023-10-05T08:10:53.608Z,1019.76
2023-10-05T08:11:53.568Z,1019.81
2023-10-05T08:12:54.494Z,1019.81
2023-10-05T08:13:53.542Z,1019.81
2023-10-05T08:14:53.462Z,1019.79
2023-10-05T08:15:54.535Z,1019.83
2023-10-05T08:16:53.441Z,1019.85
2023-10-05T08:17:53.426Z,1019.83
2023-10-05T08:18:53.309Z,1019.84
2023-10-05T08:19:53.295Z,1019.90
2023-10-05T08:20:53.234Z,1019.93
2023-10-05T08:21:53.190Z,1019.92
2023-10-05T08:22:53.176Z,1019.97
2023-10-05T08:23:53.709Z,1020.01
2023-10-05T08:24:53.141Z,1020.06
2023-10-05T08:25:53.071Z,1020.01
2023-10-05T08:26:53.008Z,1020.12
2023-10-05T08:27:53.135Z,1020.17
2023-10-05T08:28:52.931Z,1020.10
2023-10-05T08:29:52.992Z,1020.21
2023-10-05T08:30:52.852Z,1020.28
2023-10-05T08:31:52.879Z,1020.55
2023-10-05T08:32:52.849Z,1020.31
2023-10-05T08:33:52.742Z,1020.36
2023-10-05T08:34:52.709Z,1020.67
2023-10-05T08:35:52.673Z,1020.39
2023-10-05T08:36:52.637Z,1020.47
2023-10-05T08:37:52.603Z,1020.19
2023-10-05T08:38:52.594Z,1020.26
2023-10-05T08:40:02.907Z,1020.26
2023-10-05T08:41:04.866Z,1020.18
2023-10-05T08:42:00.627Z,1020.20
2023-10-05T08:43:01.017Z,1020.19
2023-10-05T08:44:01.540Z,1020.23
2023-10-05T08:45:03.523Z,1020.23
2023-10-05T08:46:01.756Z,1020.08
2023-10-05T08:47:00.634Z,1020.12
2023-10-05T08:48:01.702Z,1020.10
2023-10-05T08:49:00.272Z,1020.10
2023-10-05T08:50:02.826Z,1020.13
2023-10-05T08:50:52.207Z,1020.13
2023-10-05T08:52:05.253Z,1020.21
2023-10-05T08:52:52.083Z,1020.16
2023-10-05T08:53:52.077Z,1020.11
2023-10-05T08:55:02.258Z,1020.08
2023-10-05T08:55:51.962Z,1020.20
2023-10-05T08:56:51.919Z,1020.22
2023-10-05T08:58:02.630Z,1020.15
2023-10-05T08:59:00.354Z,1020.09
2023-10-05T09:00:00.890Z,1020.11
2023-10-05T09:00:51.793Z,1020.10
2023-10-05T09:01:52.481Z,1020.11
2023-10-05T09:02:51.732Z,1020.14
2023-10-05T09:03:51.711Z,1020.07
2023-10-05T09:04:51.673Z,1020.08
2023-10-05T09:05:51.601Z,1020.38
2023-10-05T09:06:51.594Z,1020.10
2023-10-05T09:07:53.427Z,1020.38
2023-10-05T09:08:51.508Z,1020.12
2023-10-05T09:09:51.462Z,1020.17
2023-10-05T09:10:51.970Z,1020.11
2023-10-05T09:11:51.401Z,1020.13
2023-10-05T09:12:51.959Z,1020.12
2023-10-05T09:13:51.399Z,1020.15
2023-10-05T09:14:54.119Z,1020.19
2023-10-05T09:15:51.306Z,1020.22
2023-10-05T09:16:51.336Z,1020.20
2023-10-05T09:17:51.249Z,1020.22
2023-10-05T09:18:51.145Z,1020.23
2023-10-05T09:19:51.231Z,1020.21
2023-10-05T09:20:51.075Z,1020.22
2023-10-05T09:21:51.041Z,1020.21
2023-10-05T09:22:51.895Z,1020.26
2023-10-05T09:23:50.986Z,1020.27
2023-10-05T09:24:50.939Z,1020.24
2023-10-05T09:25:50.916Z,1020.28
2023-10-05T09:26:50.864Z,1020.25
2023-10-05T09:27:50.823Z,1020.30
2023-10-05T09:28:51.448Z,1020.30
2023-10-05T09:29:50.765Z,1020.33
2023-10-05T09:30:50.775Z,1020.39
2023-10-05T09:31:50.819Z,1020.45
2023-10-05T09:32:50.776Z,1020.40
2023-10-05T09:33:50.626Z,1020.44
2023-10-05T09:34:51.184Z,1020.42
2023-10-05T09:35:50.544Z,1020.73
2023-10-05T09:36:50.512Z,1020.76
2023-10-05T09:37:50.472Z,1020.36
2023-10-05T09:38:50.441Z,1020.36
2023-10-05T09:39:51.379Z,1020.75
2023-10-05T09:40:50.377Z,1020.40
2023-10-05T09:41:50.420Z,1020.70
2023-10-05T09:42:50.296Z,1020.33
2023-10-05T09:43:50.938Z,1020.37
2023-10-05T09:44:50.224Z,1020.48
2023-10-05T09:45:50.242Z,1020.41
2023-10-05T09:46:53.567Z,1020.44
2023-10-05T09:47:50.171Z,1020.48
2023-10-05T09:48:50.888Z,1020.47
2023-10-05T09:49:50.048Z,1020.49
2023-10-05T09:50:50.036Z,1020.48
2023-10-05T09:51:50.047Z,1020.52
2023-10-05T09:52:49.970Z,1020.58
2023-10-05T09:53:49.911Z,1020.59
2023-10-05T09:54:49.886Z,1020.61
2023-10-05T09:55:50.690Z,1020.65
2023-10-05T09:56:49.802Z,1020.63
2023-10-05T09:57:49.975Z,1020.71
2023-10-05T09:58:49.824Z,1020.71
2023-10-05T09:59:49.709Z,1020.72
2023-10-05T10:00:49.706Z,1020.75
2023-10-05T10:01:49.711Z,1020.75
2023-10-05T10:02:49.600Z,1020.75
2023-10-05T10:03:49.548Z,1020.70
2023-10-05T10:04:49.526Z,1020.72
2023-10-05T10:05:49.509Z,1020.73
2023-10-05T10:06:50.369Z,1020.69
2023-10-05T10:07:49.444Z,1020.71
2023-10-05T10:08:49.383Z,1020.64
2023-10-05T10:09:50.373Z,1020.72
2023-10-05T10:10:49.306Z,1020.73
2023-10-05T10:11:49.411Z,1020.69
2023-10-05T10:12:49.234Z,1020.68
2023-10-05T10:13:49.359Z,1020.65
2023-10-05T10:14:49.165Z,1020.66
2023-10-05T10:15:49.156Z,1020.97
2023-10-05T10:16:49.146Z,1020.65
2023-10-05T10:17:49.088Z,1020.65
2023-10-05T10:18:49.016Z,1020.66
2023-10-05T10:19:49.967Z,1020.65
2023-10-05T10:20:49.063Z,1020.67
2023-10-05T10:21:48.933Z,1020.63
2023-10-05T10:22:48.880Z,1020.67
2023-10-05T10:23:49.384Z,1020.64
2023-10-05T10:24:49.912Z,1020.57
2023-10-05T10:25:48.811Z,1020.87
2023-10-05T10:26:48.726Z,1020.87
2023-10-05T10:27:49.411Z,1020.58
2023-10-05T10:28:58.935Z,1020.55
2023-10-05T10:29:48.621Z,1020.53
2023-10-05T10:30:48.713Z,1020.52
2023-10-05T10:31:50.285Z,1020.52
2023-10-05T10:32:48.594Z,1020.52
2023-10-05T10:33:48.533Z,1020.45
2023-10-05T10:34:48.465Z,1020.54
2023-10-05T10:35:48.401Z,1020.55
2023-10-05T10:36:48.369Z,1020.50
2023-10-05T10:37:48.991Z,1020.56
2023-10-05T10:38:48.298Z,1020.48
2023-10-05T10:39:48.281Z,1020.53
2023-10-05T10:40:48.291Z,1020.53
2023-10-05T10:41:48.190Z,1020.45
2023-10-05T10:42:48.152Z,1020.47
2023-10-05T10:43:48.206Z,1020.47
2023-10-05T10:44:48.075Z,1020.49
2023-10-05T10:45:48.064Z,1020.45
2023-10-05T10:46:48.070Z,1020.49
2023-10-05T10:47:48.007Z,1020.48
2023-10-05T10:48:47.934Z,1020.53
2023-10-05T10:49:47.967Z,1020.47
2023-10-05T10:50:47.893Z,1020.47
2023-10-05T10:51:47.826Z,1020.48
2023-10-05T10:52:47.887Z,1020.46
2023-10-05T10:53:47.853Z,1020.44
2023-10-05T10:54:47.715Z,1020.47
2023-10-05T10:55:48.497Z,1020.49
2023-10-05T10:56:47.666Z,1020.56
2023-10-05T10:57:47.610Z,1020.52
2023-10-05T10:58:47.609Z,1020.51
2023-10-05T10:59:47.556Z,1020.52
2023-10-05T11:00:47.514Z,1020.53
2023-10-05T11:01:47.507Z,1020.56
2023-10-05T11:02:47.469Z,1020.51
2023-10-05T11:03:47.400Z,1020.43
2023-10-05T11:05:00.569Z,1020.50
2023-10-05T11:05:47.349Z,1020.44
2023-10-05T11:06:47.287Z,1020.48
2023-10-05T11:07:47.318Z,1020.83
2023-10-05T11:08:47.243Z,1020.51
2023-10-05T11:09:47.183Z,1020.56
2023-10-05T11:10:47.192Z,1020.84
2023-10-05T11:11:47.119Z,1020.88
2023-10-05T11:12:47.065Z,1020.49
2023-10-05T11:13:47.123Z,1020.60
2023-10-05T11:14:46.997Z,1020.47
2023-10-05T11:15:46.965Z,1020.46
2023-10-05T11:16:47.075Z,1020.44
2023-10-05T11:17:47.541Z,1020.45
2023-10-05T11:18:46.872Z,1020.41
2023-10-05T11:19:46.849Z,1020.43
2023-10-05T11:20:46.800Z,1020.55
2023-10-05T11:21:46.774Z,1020.39
2023-10-05T11:22:46.705Z,1020.40
2023-10-05T11:23:46.678Z,1020.70
2023-10-05T11:24:46.844Z,1020.35
2023-10-05T11:25:54.766Z,1020.33
2023-10-05T11:26:54.556Z,1020.32
2023-10-05T11:27:46.534Z,1020.32
2023-10-05T11:28:48.412Z,1020.37
2023-10-05T11:29:47.410Z,1020.25
2023-10-05T11:30:59.798Z,1020.25
2023-10-05T11:31:51.662Z,1020.27
2023-10-05T11:33:35.717Z,1020.30
2023-10-05T11:34:44.205Z,1020.38
2023-10-05T11:35:17.600Z,1020.38
2023-10-05T11:35:46.364Z,1020.39
2023-10-05T11:36:46.404Z,1020.40
2023-10-05T11:37:46.659Z,1020.39
2023-10-05T11:38:46.250Z,1020.34
2023-10-05T11:39:46.159Z,1020.27
2023-10-05T11:40:46.149Z,1020.27
2023-10-05T11:41:46.032Z,1020.29
2023-10-05T11:42:45.989Z,1020.35
2023-10-05T11:43:46.003Z,1020.56
2023-10-05T11:44:45.936Z,1020.26
2023-10-05T11:45:45.917Z,1020.32
2023-10-05T11:46:45.898Z,1020.66
2023-10-05T11:47:45.850Z,1020.36
2023-10-05T11:48:45.789Z,1020.16
2023-10-05T11:49:45.783Z,1020.34
2023-10-05T11:50:45.731Z,1020.60
2023-10-05T11:51:45.715Z,1020.22
2023-10-05T11:52:45.693Z,1020.55
2023-10-05T11:53:45.612Z,1020.25
2023-10-05T11:54:45.621Z,1020.12
2023-10-05T11:55:45.597Z,1020.56
2023-10-05T11:56:45.545Z,1020.10
2023-10-05T11:57:45.484Z,1020.09
2023-10-05T11:58:45.521Z,1020.42
2023-10-05T11:59:45.419Z,1020.09
2023-10-05T12:00:45.401Z,1020.13
2023-10-05T12:01:45.435Z,1020.41
2023-10-05T12:02:45.424Z,1020.40
2023-10-05T12:03:45.616Z,1020.22
2023-10-05T12:04:45.499Z,1020.16
2023-10-05T12:05:45.322Z,1020.28
2023-10-05T12:06:45.178Z,1020.21
2023-10-05T12:07:45.192Z,1020.21
2023-10-05T12:08:45.128Z,1020.22
2023-10-05T12:09:45.117Z,1020.20
2023-10-05T12:10:45.072Z,1020.50
2023-10-05T12:11:45.019Z,1020.55
2023-10-05T12:12:44.982Z,1020.20
2023-10-05T12:13:44.962Z,1020.25